createdAt,value
2017-09-21T00:00:31.554Z,1014.51
2017-09-21T00:01:20.501Z,1014.52
2017-09-21T00:02:08.910Z,1014.49
2017-09-21T00:02:57.042Z,1014.49
2017-09-21T00:03:45.683Z,1014.46
2017-09-21T00:04:33.646Z,1014.46
2017-09-21T00:05:21.779Z,1014.49
2017-09-21T00:06:10.711Z,1014.47
2017-09-21T00:06:59.287Z,1014.47
2017-09-21T00:07:46.831Z,1014.47
2017-09-21T00:08:35.883Z,1014.42
2017-09-21T00:09:23.847Z,1014.43
2017-09-21T00:10:11.972Z,1014.43
2017-09-21T00:11:00.927Z,1014.41
2017-09-21T00:11:48.987Z,1014.45
2017-09-21T00:12:37.000Z,1014.42
2017-09-21T00:13:26.086Z,1014.42
2017-09-21T00:14:14.265Z,1014.44
2017-09-21T00:15:02.175Z,1014.47
2017-09-21T00:15:51.232Z,1014.45
2017-09-21T00:16:39.247Z,1014.41
2017-09-21T00:17:27.309Z,1014.41
2017-09-21T00:18:16.313Z,1014.43
2017-09-21T00:19:04.413Z,1014.41
2017-09-21T00:19:52.448Z,1014.40
2017-09-21T00:20:40.424Z,1014.37
2017-09-21T00:21:29.506Z,1014.42
2017-09-21T00:22:17.508Z,1014.40
2017-09-21T00:23:06.665Z,1014.39
2017-09-21T00:23:54.606Z,1014.44
2017-09-21T00:24:42.624Z,1014.43
2017-09-21T00:25:31.693Z,1014.43
2017-09-21T00:26:19.702Z,1014.43
2017-09-21T00:27:07.756Z,1014.44
2017-09-21T00:27:56.798Z,1014.42
2017-09-21T00:28:44.793Z,1014.44
2017-09-21T00:29:32.947Z,1014.40
2017-09-21T00:30:21.957Z,1014.36
2017-09-21T00:31:09.980Z,1014.43
2017-09-21T00:31:58.025Z,1014.40
2017-09-21T00:32:47.323Z,1014.39
2017-09-21T00:33:35.101Z,1014.42
2017-09-21T00:34:23.138Z,1014.41
2017-09-21T00:35:11.122Z,1014.39
2017-09-21T00:36:00.258Z,1014.33
2017-09-21T00:36:48.308Z,1014.36
2017-09-21T00:37:37.420Z,1014.39
2017-09-21T00:38:25.608Z,1014.43
2017-09-21T00:39:13.415Z,1014.40
2017-09-21T00:40:02.425Z,1014.38
2017-09-21T00:40:50.435Z,1014.40
2017-09-21T00:41:38.508Z,1014.38
2017-09-21T00:42:27.547Z,1014.43
2017-09-21T00:43:15.546Z,1014.44
2017-09-21T00:44:03.608Z,1014.44
2017-09-21T00:44:52.644Z,1014.46
2017-09-21T00:45:40.667Z,1014.46
2017-09-21T00:46:28.736Z,1014.41
2017-09-21T00:47:17.816Z,1014.39
2017-09-21T00:48:05.826Z,1014.42
2017-09-21T00:48:53.817Z,1014.40
2017-09-21T00:49:42.915Z,1014.38
2017-09-21T00:50:30.962Z,1014.37
2017-09-21T00:51:18.980Z,1014.37
2017-09-21T00:52:07.990Z,1014.38
2017-09-21T00:52:56.081Z,1014.40
2017-09-21T00:53:44.093Z,1014.37
2017-09-21T00:54:33.089Z,1014.35
2017-09-21T00:55:22.108Z,1014.35
2017-09-21T00:56:10.177Z,1014.35
2017-09-21T00:56:58.334Z,1014.38
2017-09-21T00:57:46.425Z,1014.40
2017-09-21T00:58:34.296Z,1014.41
2017-09-21T00:59:22.386Z,1014.37
2017-09-21T01:00:11.482Z,1014.39
2017-09-21T01:00:59.485Z,1014.37
2017-09-21T01:01:47.824Z,1014.39
2017-09-21T01:02:36.558Z,1014.40
2017-09-21T01:03:24.577Z,1014.40
2017-09-21T01:04:12.571Z,1014.41
2017-09-21T01:05:00.667Z,1014.41
2017-09-21T01:05:49.683Z,1014.42
2017-09-21T01:06:37.922Z,1014.43
2017-09-21T01:07:25.709Z,1014.41
2017-09-21T01:08:14.798Z,1014.43
2017-09-21T01:09:02.835Z,1014.46
2017-09-21T01:09:51.896Z,1014.47
2017-09-21T01:10:39.915Z,1014.46
2017-09-21T01:11:27.892Z,1014.45
2017-09-21T01:12:16.985Z,1014.45
2017-09-21T01:13:05.017Z,1014.45
2017-09-21T01:13:53.151Z,1014.42
2017-09-21T01:14:42.130Z,1014.47
2017-09-21T01:15:30.100Z,1014.43
2017-09-21T01:16:18.258Z,1014.46
2017-09-21T01:17:07.194Z,1014.44
2017-09-21T01:17:55.219Z,1014.46
2017-09-21T01:18:43.352Z,1014.48
2017-09-21T01:19:32.323Z,1014.47
2017-09-21T01:20:20.351Z,1014.45
2017-09-21T01:21:08.379Z,1014.45
2017-09-21T01:21:57.486Z,1014.46
2017-09-21T01:22:45.476Z,1014.44
2017-09-21T01:23:33.488Z,1014.47
2017-09-21T01:24:22.577Z,1014.48
2017-09-21T01:25:10.611Z,1014.46
2017-09-21T01:25:58.609Z,1014.46
2017-09-21T01:26:48.034Z,1014.46
2017-09-21T01:27:35.697Z,1014.48
2017-09-21T01:28:23.769Z,1014.47
2017-09-21T01:29:12.826Z,1014.48
2017-09-21T01:30:15.867Z,1014.47
2017-09-21T01:30:48.905Z,1014.47
2017-09-21T01:31:38.021Z,1014.48
2017-09-21T01:32:25.948Z,1014.49
2017-09-21T01:33:14.011Z,1014.50
2017-09-21T01:34:03.298Z,1014.48
2017-09-21T01:34:51.065Z,1014.49
2017-09-21T01:35:39.149Z,1014.45
2017-09-21T01:36:28.156Z,1014.48
2017-09-21T01:37:16.213Z,1014.50
2017-09-21T01:38:04.222Z,1014.46
2017-09-21T01:38:53.465Z,1014.47
2017-09-21T01:39:41.321Z,1014.50
2017-09-21T01:40:29.344Z,1014.47
2017-09-21T01:41:18.401Z,1014.50
2017-09-21T01:42:06.744Z,1014.51
2017-09-21T01:42:54.929Z,1014.54
2017-09-21T01:43:43.554Z,1014.55
2017-09-21T01:44:31.600Z,1014.50
2017-09-21T01:45:19.564Z,1014.52
2017-09-21T01:46:08.585Z,1014.52
2017-09-21T01:46:57.026Z,1014.48
2017-09-21T01:47:44.681Z,1014.52
2017-09-21T01:48:33.754Z,1014.55
2017-09-21T01:49:21.790Z,1014.53
2017-09-21T01:50:09.806Z,1014.55
2017-09-21T01:50:57.864Z,1014.56
2017-09-21T01:51:46.952Z,1014.56
2017-09-21T01:52:34.937Z,1014.54
2017-09-21T01:53:22.970Z,1014.54
2017-09-21T01:54:11.993Z,1014.50
2017-09-21T01:55:00.105Z,1014.50
2017-09-21T01:55:49.086Z,1014.45
2017-09-21T01:56:37.334Z,1014.48
2017-09-21T01:57:25.124Z,1014.51
2017-09-21T01:58:13.209Z,1014.50
2017-09-21T01:59:02.305Z,1014.48
2017-09-21T01:59:50.305Z,1014.47
2017-09-21T02:00:38.317Z,1014.49
2017-09-21T02:01:27.419Z,1014.49
2017-09-21T02:02:15.450Z,1014.49
2017-09-21T02:03:03.547Z,1014.46
2017-09-21T02:03:52.513Z,1014.46
2017-09-21T02:04:40.530Z,1014.45
2017-09-21T02:05:28.586Z,1014.49
2017-09-21T02:06:17.865Z,1014.49
2017-09-21T02:07:05.632Z,1014.50
2017-09-21T02:07:53.729Z,1014.48
2017-09-21T02:08:42.715Z,1014.49
2017-09-21T02:09:30.813Z,1014.52
2017-09-21T02:10:18.797Z,1014.53
2017-09-21T02:11:07.829Z,1014.51
2017-09-21T02:11:55.900Z,1014.51
2017-09-21T02:12:44.125Z,1014.53
2017-09-21T02:13:32.918Z,1014.56
2017-09-21T02:14:21.007Z,1014.55
2017-09-21T02:15:15.077Z,1014.52
2017-09-21T02:16:16.143Z,1014.55
2017-09-21T02:17:16.369Z,1014.54
2017-09-21T02:18:11.167Z,1014.57
2017-09-21T02:19:11.198Z,1014.59
2017-09-21T02:20:05.320Z,1014.53
2017-09-21T02:21:06.255Z,1014.56
2017-09-21T02:22:06.262Z,1014.51
2017-09-21T02:23:01.319Z,1014.51
2017-09-21T02:24:01.317Z,1014.50
2017-09-21T02:24:55.295Z,1014.50
2017-09-21T02:25:55.391Z,1014.46
2017-09-21T02:26:50.450Z,1014.47
2017-09-21T02:27:45.462Z,1014.45
2017-09-21T02:28:45.488Z,1014.44
2017-09-21T02:29:40.525Z,1014.42
2017-09-21T02:30:35.513Z,1014.39
2017-09-21T02:31:36.975Z,1014.40
2017-09-21T02:32:36.576Z,1014.41
2017-09-21T02:33:36.621Z,1014.41
2017-09-21T02:34:31.667Z,1014.35
2017-09-21T02:35:25.711Z,1014.39
2017-09-21T02:36:25.720Z,1014.39
2017-09-21T02:37:20.824Z,1014.41
2017-09-21T02:38:26.811Z,1014.39
2017-09-21T02:39:26.818Z,1014.38
2017-09-21T02:40:27.831Z,1014.40
2017-09-21T02:41:21.839Z,1014.40
2017-09-21T02:42:22.322Z,1014.36
2017-09-21T02:43:16.907Z,1014.36
2017-09-21T02:44:12.084Z,1014.37
2017-09-21T02:45:11.961Z,1014.39
2017-09-21T02:46:07.068Z,1014.35
2017-09-21T02:47:02.342Z,1014.36
2017-09-21T02:48:02.065Z,1014.35
2017-09-21T02:48:57.126Z,1014.37
2017-09-21T02:49:52.169Z,1014.38
2017-09-21T02:50:53.602Z,1014.38
2017-09-21T02:51:53.262Z,1014.37
2017-09-21T02:52:53.266Z,1014.34
2017-09-21T02:53:48.300Z,1014.35
2017-09-21T02:54:42.586Z,1014.31
2017-09-21T02:55:42.578Z,1014.37
2017-09-21T02:56:37.571Z,1014.38
2017-09-21T02:57:37.447Z,1014.39
2017-09-21T02:58:31.401Z,1014.39
2017-09-21T02:59:31.531Z,1014.39
2017-09-21T03:00:26.551Z,1014.43
2017-09-21T03:01:21.558Z,1014.41
2017-09-21T03:02:21.561Z,1014.42
2017-09-21T03:03:16.601Z,1014.43
2017-09-21T03:04:11.646Z,1014.39
2017-09-21T03:05:12.685Z,1014.37
2017-09-21T03:06:12.707Z,1014.35
2017-09-21T03:07:12.729Z,1014.33
2017-09-21T03:08:07.772Z,1014.35
2017-09-21T03:09:01.834Z,1014.37
2017-09-21T03:10:01.808Z,1014.32
2017-09-21T03:10:56.820Z,1014.34
2017-09-21T03:11:56.848Z,1014.36
2017-09-21T03:12:50.920Z,1014.38
2017-09-21T03:13:51.927Z,1014.34
2017-09-21T03:14:57.987Z,1014.35
2017-09-21T03:15:57.978Z,1014.35
2017-09-21T03:16:57.961Z,1014.38
2017-09-21T03:17:59.015Z,1014.38
2017-09-21T03:18:59.046Z,1014.34
2017-09-21T03:19:54.106Z,1014.36
2017-09-21T03:21:00.320Z,1014.37
2017-09-21T03:21:55.184Z,1014.38
2017-09-21T03:22:49.197Z,1014.33
2017-09-21T03:23:50.196Z,1014.40
2017-09-21T03:24:45.235Z,1014.38
2017-09-21T03:25:39.310Z,1014.36
2017-09-21T03:26:39.794Z,1014.40
2017-09-21T03:27:34.373Z,1014.38
2017-09-21T03:28:34.352Z,1014.40
2017-09-21T03:29:28.460Z,1014.40
2017-09-21T03:30:28.434Z,1014.38
2017-09-21T03:31:23.459Z,1014.36
2017-09-21T03:32:18.515Z,1014.35
2017-09-21T03:33:18.495Z,1014.30
2017-09-21T03:34:13.592Z,1014.35
2017-09-21T03:35:08.605Z,1014.29
2017-09-21T03:36:08.601Z,1014.30
2017-09-21T03:37:04.020Z,1014.30
2017-09-21T03:37:58.723Z,1014.31
2017-09-21T03:38:59.713Z,1014.29
2017-09-21T03:39:59.786Z,1014.29
2017-09-21T03:40:59.799Z,1014.33
2017-09-21T03:41:54.863Z,1014.35
2017-09-21T03:42:48.849Z,1014.38
2017-09-21T03:43:48.876Z,1014.36
2017-09-21T03:44:43.903Z,1014.36
2017-09-21T03:45:44.017Z,1014.34
2017-09-21T03:46:43.941Z,1014.34
2017-09-21T03:47:44.013Z,1014.34
2017-09-21T03:48:38.008Z,1014.34
2017-09-21T03:49:38.077Z,1014.30
2017-09-21T03:50:33.098Z,1014.31
2017-09-21T03:51:33.118Z,1014.27
2017-09-21T03:52:22.186Z,1014.27
2017-09-21T03:53:10.207Z,1014.26
2017-09-21T03:53:58.257Z,1014.24
2017-09-21T03:54:46.428Z,1014.24
2017-09-21T03:55:35.451Z,1014.25
2017-09-21T03:56:23.418Z,1014.22
2017-09-21T03:57:11.390Z,1014.27
2017-09-21T03:58:00.432Z,1014.29
2017-09-21T03:58:48.489Z,1014.23
2017-09-21T03:59:36.550Z,1014.25
2017-09-21T04:00:24.619Z,1014.25
2017-09-21T04:01:13.601Z,1014.24
2017-09-21T04:02:01.659Z,1014.26
2017-09-21T04:02:51.102Z,1014.26
2017-09-21T04:03:38.757Z,1014.24
2017-09-21T04:04:26.754Z,1014.24
2017-09-21T04:05:15.809Z,1014.24
2017-09-21T04:06:03.805Z,1014.29
2017-09-21T04:06:52.355Z,1014.31
2017-09-21T04:07:39.915Z,1014.24
2017-09-21T04:08:27.954Z,1014.25
2017-09-21T04:09:22.010Z,1014.31
2017-09-21T04:10:16.039Z,1014.29
2017-09-21T04:11:16.180Z,1014.29
2017-09-21T04:12:16.175Z,1014.28
2017-09-21T04:13:10.195Z,1014.28
2017-09-21T04:14:10.132Z,1014.30
2017-09-21T04:15:05.174Z,1014.28
2017-09-21T04:16:00.206Z,1014.31
2017-09-21T04:17:01.269Z,1014.29
2017-09-21T04:18:01.295Z,1014.31
2017-09-21T04:19:01.286Z,1014.31
2017-09-21T04:20:01.380Z,1014.33
2017-09-21T04:21:02.328Z,1014.36
2017-09-21T04:22:03.387Z,1014.34
2017-09-21T04:22:57.427Z,1014.34
2017-09-21T04:23:57.419Z,1014.38
2017-09-21T04:24:52.483Z,1014.36
2017-09-21T04:25:47.460Z,1014.36
2017-09-21T04:26:47.575Z,1014.34
2017-09-21T04:27:42.749Z,1014.40
2017-09-21T04:28:42.595Z,1014.37
2017-09-21T04:29:42.598Z,1014.37
2017-09-21T04:30:48.674Z,1014.36
2017-09-21T04:31:43.758Z,1014.37
2017-09-21T04:32:37.769Z,1014.38
2017-09-21T04:33:37.801Z,1014.41
2017-09-21T04:34:37.768Z,1014.43
2017-09-21T04:35:32.852Z,1014.45
2017-09-21T04:36:32.837Z,1014.46
2017-09-21T04:37:32.904Z,1014.47
2017-09-21T04:38:26.866Z,1014.50
2017-09-21T04:39:14.928Z,1014.51
2017-09-21T04:40:08.987Z,1014.53
2017-09-21T04:41:09.070Z,1014.50
2017-09-21T04:42:04.039Z,1014.54
2017-09-21T04:42:59.088Z,1014.50
2017-09-21T04:43:59.154Z,1014.51
2017-09-21T04:44:54.174Z,1014.48
2017-09-21T04:45:49.187Z,1014.50
2017-09-21T04:46:49.567Z,1014.50
2017-09-21T04:47:44.230Z,1014.49
2017-09-21T04:48:39.278Z,1014.51
2017-09-21T04:49:45.298Z,1014.52
2017-09-21T04:50:39.333Z,1014.49
2017-09-21T04:51:39.536Z,1014.56
2017-09-21T04:52:34.358Z,1014.58
2017-09-21T04:53:34.404Z,1014.58
2017-09-21T04:54:34.508Z,1014.62
2017-09-21T04:55:34.419Z,1014.63
2017-09-21T04:56:34.510Z,1014.65
2017-09-21T04:57:40.470Z,1014.68
2017-09-21T04:58:40.500Z,1014.69
2017-09-21T04:59:41.572Z,1014.68
2017-09-21T05:00:41.608Z,1014.67
2017-09-21T05:01:42.228Z,1014.68
2017-09-21T05:02:35.655Z,1014.70
2017-09-21T05:03:35.825Z,1014.70
2017-09-21T05:04:30.729Z,1014.68
2017-09-21T05:05:25.762Z,1014.69
2017-09-21T05:06:25.817Z,1014.62
2017-09-21T05:07:20.990Z,1014.63
2017-09-21T05:08:15.898Z,1014.63
2017-09-21T05:09:09.909Z,1014.62
2017-09-21T05:10:09.907Z,1014.64
2017-09-21T05:11:04.968Z,1014.63
2017-09-21T05:12:00.008Z,1014.64
2017-09-21T05:13:00.010Z,1014.62
2017-09-21T05:13:55.065Z,1014.66
2017-09-21T05:14:50.571Z,1014.64
2017-09-21T05:15:44.144Z,1014.61
2017-09-21T05:16:44.773Z,1014.64
2017-09-21T05:17:39.238Z,1014.61
2017-09-21T05:18:39.247Z,1014.60
2017-09-21T05:19:39.346Z,1014.59
2017-09-21T05:20:39.295Z,1014.58
2017-09-21T05:21:39.271Z,1014.59
2017-09-21T05:22:39.319Z,1014.58
2017-09-21T05:23:33.389Z,1014.58
2017-09-21T05:24:33.423Z,1014.56
2017-09-21T05:25:28.421Z,1014.59
2017-09-21T05:26:28.524Z,1014.61
2017-09-21T05:27:29.498Z,1014.59
2017-09-21T05:28:30.523Z,1014.55
2017-09-21T05:29:31.614Z,1014.55
2017-09-21T05:30:31.604Z,1014.55
2017-09-21T05:31:31.594Z,1014.59
2017-09-21T05:32:25.656Z,1014.58
2017-09-21T05:33:25.682Z,1014.57
2017-09-21T05:34:20.706Z,1014.60
2017-09-21T05:35:15.703Z,1014.60
2017-09-21T05:36:09.791Z,1014.60
2017-09-21T05:37:09.809Z,1014.62
2017-09-21T05:38:04.836Z,1014.60
2017-09-21T05:38:59.920Z,1014.62
2017-09-21T05:39:59.908Z,1014.63
2017-09-21T05:40:54.954Z,1014.63
2017-09-21T05:41:55.017Z,1014.65
2017-09-21T05:42:55.996Z,1014.68
2017-09-21T05:43:57.021Z,1014.64
2017-09-21T05:44:51.090Z,1014.68
2017-09-21T05:45:51.120Z,1014.67
2017-09-21T05:46:46.566Z,1014.72
2017-09-21T05:47:41.189Z,1014.70
2017-09-21T05:48:41.177Z,1014.75
2017-09-21T05:49:41.206Z,1014.78
2017-09-21T05:50:35.254Z,1014.75
2017-09-21T05:51:35.322Z,1014.76
2017-09-21T05:52:30.326Z,1014.75
2017-09-21T05:53:30.667Z,1014.75
2017-09-21T05:54:31.429Z,1014.77
2017-09-21T05:55:31.435Z,1014.77
2017-09-21T05:56:26.423Z,1014.77
2017-09-21T05:57:26.528Z,1014.79
2017-09-21T05:58:21.544Z,1014.77
2017-09-21T05:59:16.969Z,1014.74
2017-09-21T06:00:16.507Z,1014.77
2017-09-21T06:01:16.625Z,1014.78
2017-09-21T06:02:10.621Z,1014.77
2017-09-21T06:03:11.620Z,1014.76
2017-09-21T06:04:11.792Z,1014.79
2017-09-21T06:05:07.085Z,1014.77
2017-09-21T06:06:12.767Z,1014.76
2017-09-21T06:07:07.794Z,1014.75
2017-09-21T06:08:01.818Z,1014.78
2017-09-21T06:09:01.892Z,1014.75
2017-09-21T06:09:57.004Z,1014.78
2017-09-21T06:10:52.545Z,1014.77
2017-09-21T06:11:52.912Z,1014.76
2017-09-21T06:12:53.983Z,1014.76
2017-09-21T06:14:00.008Z,1014.79
2017-09-21T06:14:54.357Z,1014.79
2017-09-21T06:15:55.394Z,1014.77
2017-09-21T06:16:50.066Z,1014.80
2017-09-21T06:17:50.125Z,1014.81
2017-09-21T06:18:50.203Z,1014.82
2017-09-21T06:19:50.187Z,1014.83
2017-09-21T06:20:50.217Z,1014.84
2017-09-21T06:21:50.201Z,1014.85
2017-09-21T06:22:50.290Z,1014.87
2017-09-21T06:23:50.405Z,1014.84
2017-09-21T06:24:50.335Z,1014.83
2017-09-21T06:25:50.376Z,1014.83
2017-09-21T06:26:50.350Z,1014.81
2017-09-21T06:27:50.460Z,1014.84
2017-09-21T06:28:50.427Z,1014.81
2017-09-21T06:29:50.484Z,1014.85
2017-09-21T06:30:50.513Z,1014.86
2017-09-21T06:31:50.513Z,1014.84
2017-09-21T06:32:50.628Z,1014.87
2017-09-21T06:33:50.618Z,1014.86
2017-09-21T06:34:50.661Z,1014.86
2017-09-21T06:35:50.736Z,1014.86
2017-09-21T06:36:50.675Z,1014.85
2017-09-21T06:37:50.711Z,1014.85
2017-09-21T06:38:50.787Z,1014.82
2017-09-21T06:39:50.842Z,1014.81
2017-09-21T06:40:50.832Z,1014.82
2017-09-21T06:41:50.796Z,1014.86
2017-09-21T06:42:50.892Z,1014.83
2017-09-21T06:43:50.920Z,1014.81
2017-09-21T06:44:51.213Z,1014.88
2017-09-21T06:45:51.009Z,1014.89
2017-09-21T06:46:57.016Z,1014.87
2017-09-21T06:47:52.087Z,1014.89
2017-09-21T06:48:46.094Z,1014.90
2017-09-21T06:49:46.313Z,1014.84
2017-09-21T06:50:41.572Z,1014.87
2017-09-21T06:51:36.204Z,1014.86
2017-09-21T06:52:36.199Z,1014.89
2017-09-21T06:53:31.277Z,1014.89
2017-09-21T06:54:26.278Z,1014.89
2017-09-21T06:55:20.316Z,1014.93
2017-09-21T06:56:21.356Z,1014.87
2017-09-21T06:57:16.441Z,1014.92
2017-09-21T06:58:16.499Z,1014.94
2017-09-21T06:59:16.553Z,1014.90
2017-09-21T07:00:16.555Z,1014.86
2017-09-21T07:01:16.571Z,1014.89
2017-09-21T07:02:16.615Z,1014.86
2017-09-21T07:03:16.614Z,1014.90
2017-09-21T07:04:17.066Z,1014.87
2017-09-21T07:05:23.159Z,1014.89
2017-09-21T07:06:17.964Z,1014.86
2017-09-21T07:07:11.893Z,1014.89
2017-09-21T07:08:12.293Z,1014.88
2017-09-21T07:09:05.953Z,1014.84
2017-09-21T07:09:54.071Z,1014.89
2017-09-21T07:10:48.378Z,1014.89
2017-09-21T07:11:48.498Z,1014.89
2017-09-21T07:12:48.034Z,1014.92
2017-09-21T07:13:48.110Z,1014.94
2017-09-21T07:14:43.098Z,1014.95
2017-09-21T07:15:31.173Z,1014.97
2017-09-21T07:16:25.495Z,1014.96
2017-09-21T07:17:13.445Z,1015.00
2017-09-21T07:18:08.307Z,1014.96
2017-09-21T07:19:03.363Z,1014.99
2017-09-21T07:20:03.651Z,1014.92
2017-09-21T07:20:58.713Z,1014.97
2017-09-21T07:21:53.617Z,1014.97
2017-09-21T07:22:47.946Z,1014.95
2017-09-21T07:23:35.884Z,1014.94
2017-09-21T07:24:29.630Z,1014.91
2017-09-21T07:25:23.610Z,1014.93
2017-09-21T07:26:18.693Z,1014.93
2017-09-21T07:27:06.752Z,1014.98
2017-09-21T07:28:07.798Z,1014.95
2017-09-21T07:28:56.807Z,1014.97
2017-09-21T07:29:51.873Z,1014.97
2017-09-21T07:30:52.075Z,1014.98
2017-09-21T07:31:46.410Z,1014.97
2017-09-21T07:32:35.031Z,1014.99
2017-09-21T07:33:29.043Z,1015.00
2017-09-21T07:34:29.094Z,1014.99
2017-09-21T07:35:18.339Z,1015.01
2017-09-21T07:36:13.199Z,1014.97
2017-09-21T07:37:08.393Z,1014.97
2017-09-21T07:38:03.464Z,1015.02
2017-09-21T07:39:03.325Z,1015.05
2017-09-21T07:39:58.367Z,1015.02
2017-09-21T07:40:53.493Z,1015.07
2017-09-21T07:41:53.422Z,1015.07
2017-09-21T07:42:59.861Z,1015.06
2017-09-21T07:43:54.890Z,1015.07
2017-09-21T07:44:42.956Z,1015.08
2017-09-21T07:45:37.603Z,1015.12
2017-09-21T07:46:33.383Z,1015.06
2017-09-21T07:47:27.777Z,1015.01
2017-09-21T07:48:17.179Z,1015.06
2017-09-21T07:49:05.843Z,1015.06
2017-09-21T07:49:54.870Z,1015.07
2017-09-21T07:50:48.919Z,1015.07
2017-09-21T07:51:44.187Z,1015.09
2017-09-21T07:52:33.006Z,1015.11
2017-09-21T07:53:27.184Z,1015.08
2017-09-21T07:54:15.141Z,1015.13
2017-09-21T07:55:04.566Z,1015.10
2017-09-21T07:55:52.419Z,1015.15
2017-09-21T07:56:46.750Z,1015.17
2017-09-21T07:57:34.312Z,1015.12
2017-09-21T07:58:22.394Z,1015.16
2017-09-21T07:59:10.443Z,1015.16
2017-09-21T08:00:04.708Z,1015.17
2017-09-21T08:01:05.544Z,1015.16
2017-09-21T08:01:53.543Z,1015.16
2017-09-21T08:02:47.816Z,1015.17
2017-09-21T08:03:35.690Z,1015.19
2017-09-21T08:04:35.714Z,1015.19
2017-09-21T08:05:29.765Z,1015.15
2017-09-21T08:06:23.835Z,1015.17
2017-09-21T08:07:17.918Z,1015.20
2017-09-21T08:08:17.910Z,1015.17
2017-09-21T08:09:11.983Z,1015.22
2017-09-21T08:10:06.088Z,1015.18
2017-09-21T08:11:01.106Z,1015.21
2017-09-21T08:11:56.235Z,1015.23
2017-09-21T08:12:45.224Z,1015.25
2017-09-21T08:13:45.185Z,1015.24
2017-09-21T08:14:39.316Z,1015.22
2017-09-21T08:15:39.337Z,1015.21
2017-09-21T08:16:33.389Z,1015.27
2017-09-21T08:17:27.423Z,1015.22
2017-09-21T08:18:27.754Z,1015.27
2017-09-21T08:19:21.918Z,1015.24
2017-09-21T08:20:15.998Z,1015.25
2017-09-21T08:21:09.616Z,1015.22
2017-09-21T08:22:09.722Z,1015.19
2017-09-21T08:23:04.701Z,1015.18
2017-09-21T08:23:54.067Z,1015.19
2017-09-21T08:24:41.825Z,1015.21
2017-09-21T08:25:29.912Z,1015.19
2017-09-21T08:26:18.905Z,1015.21
2017-09-21T08:27:07.014Z,1015.18
2017-09-21T08:28:02.030Z,1015.22
2017-09-21T08:29:03.457Z,1015.22
2017-09-21T08:29:57.126Z,1015.24
2017-09-21T08:30:52.544Z,1015.22
2017-09-21T08:31:47.750Z,1015.21
2017-09-21T08:32:36.564Z,1015.21
2017-09-21T08:33:36.643Z,1015.21
2017-09-21T08:34:31.414Z,1015.22
2017-09-21T08:35:25.458Z,1015.17
2017-09-21T08:36:14.524Z,1015.20
2017-09-21T08:37:09.518Z,1015.16
2017-09-21T08:38:09.612Z,1015.10
2017-09-21T08:39:09.623Z,1015.15
2017-09-21T08:40:05.188Z,1015.11
2017-09-21T08:40:53.147Z,1015.09
2017-09-21T08:41:47.313Z,1015.05
2017-09-21T08:42:40.881Z,1015.09
2017-09-21T08:43:30.060Z,1015.09
2017-09-21T08:44:24.967Z,1015.05
2017-09-21T08:45:25.030Z,1015.06
2017-09-21T08:46:14.274Z,1015.04
2017-09-21T08:47:03.142Z,1015.04
2017-09-21T08:47:52.193Z,1015.08
2017-09-21T08:48:46.446Z,1015.07
2017-09-21T08:49:47.621Z,1015.09
2017-09-21T08:50:41.629Z,1015.05
2017-09-21T08:51:35.757Z,1015.06
2017-09-21T08:52:35.713Z,1015.08
2017-09-21T08:53:29.761Z,1015.07
2017-09-21T08:54:23.539Z,1015.06
2017-09-21T08:55:12.602Z,1015.04
2017-09-21T08:56:08.045Z,1015.06
2017-09-21T08:57:01.749Z,1015.05
2017-09-21T08:57:49.847Z,1015.06
2017-09-21T08:58:39.192Z,1015.07
2017-09-21T08:59:33.907Z,1015.02
2017-09-21T09:00:27.948Z,1015.05
2017-09-21T09:01:29.156Z,1015.03
2017-09-21T09:02:23.515Z,1015.04
2017-09-21T09:03:17.555Z,1015.02
2017-09-21T09:04:12.443Z,1015.05
2017-09-21T09:05:06.427Z,1015.05
2017-09-21T09:06:00.644Z,1015.01
2017-09-21T09:06:54.385Z,1015.01
2017-09-21T09:07:54.374Z,1014.99
2017-09-21T09:08:48.707Z,1014.94
2017-09-21T09:09:43.868Z,1014.98
2017-09-21T09:10:43.993Z,1014.96
2017-09-21T09:11:31.969Z,1014.93
2017-09-21T09:12:26.815Z,1014.96
2017-09-21T09:13:26.776Z,1014.94
2017-09-21T09:14:21.160Z,1014.94
2017-09-21T09:15:20.828Z,1014.92
2017-09-21T09:16:10.251Z,1014.96
2017-09-21T09:17:04.340Z,1014.97
2017-09-21T09:17:58.331Z,1015.00
2017-09-21T09:18:46.381Z,1014.94
2017-09-21T09:19:41.393Z,1014.97
2017-09-21T09:20:35.491Z,1015.00
2017-09-21T09:21:24.520Z,1015.00
2017-09-21T09:22:18.621Z,1014.95
2017-09-21T09:23:13.704Z,1015.02
2017-09-21T09:24:14.750Z,1014.96
2017-09-21T09:25:02.763Z,1014.96
2017-09-21T09:25:56.849Z,1015.03
2017-09-21T09:26:51.925Z,1014.99
2017-09-21T09:27:46.888Z,1014.98
2017-09-21T09:28:42.014Z,1014.97
2017-09-21T09:29:36.007Z,1014.97
2017-09-21T09:30:31.098Z,1014.93
2017-09-21T09:31:31.157Z,1014.96
2017-09-21T09:32:19.218Z,1014.96
2017-09-21T09:33:13.295Z,1014.94
2017-09-21T09:34:01.327Z,1014.98
2017-09-21T09:34:49.300Z,1014.96
2017-09-21T09:35:38.405Z,1014.97
2017-09-21T09:36:33.165Z,1014.98
2017-09-21T09:37:22.187Z,1014.95
2017-09-21T09:38:16.550Z,1014.95
2017-09-21T09:39:10.727Z,1014.94
2017-09-21T09:40:04.745Z,1014.97
2017-09-21T09:40:58.784Z,1014.92
2017-09-21T09:41:46.888Z,1014.89
2017-09-21T09:42:46.948Z,1014.90
2017-09-21T09:43:35.935Z,1014.93
2017-09-21T09:44:31.322Z,1014.92
2017-09-21T09:45:26.095Z,1014.90
2017-09-21T09:46:14.118Z,1014.92
2017-09-21T09:47:14.153Z,1014.83
2017-09-21T09:48:02.175Z,1014.78
2017-09-21T09:48:57.302Z,1014.80
2017-09-21T09:49:52.597Z,1014.80
2017-09-21T09:50:46.393Z,1014.81
2017-09-21T09:51:35.416Z,1014.75
2017-09-21T09:52:30.516Z,1014.81
2017-09-21T09:53:31.531Z,1014.83
2017-09-21T09:54:20.568Z,1014.79
2017-09-21T09:55:20.643Z,1014.79
2017-09-21T09:56:09.713Z,1014.78
2017-09-21T09:56:58.788Z,1014.79
2017-09-21T09:57:52.802Z,1014.76
2017-09-21T09:58:46.921Z,1014.74
2017-09-21T09:59:40.916Z,1014.75
2017-09-21T10:00:35.011Z,1014.75
2017-09-21T10:01:35.026Z,1014.79
2017-09-21T10:02:29.020Z,1014.78
2017-09-21T10:03:29.145Z,1014.81
2017-09-21T10:04:24.205Z,1014.71
2017-09-21T10:05:13.282Z,1014.85
2017-09-21T10:06:08.464Z,1014.82
2017-09-21T10:07:02.388Z,1014.83
2017-09-21T10:08:02.404Z,1014.79
2017-09-21T10:08:56.472Z,1014.81
2017-09-21T10:09:51.546Z,1014.77
2017-09-21T10:10:51.583Z,1014.66
2017-09-21T10:11:45.897Z,1014.68
2017-09-21T10:12:40.687Z,1014.78
2017-09-21T10:13:40.731Z,1014.74
2017-09-21T10:14:34.802Z,1014.80
2017-09-21T10:15:28.844Z,1014.79
2017-09-21T10:16:23.899Z,1014.82
2017-09-21T10:17:18.318Z,1014.74
2017-09-21T10:18:18.013Z,1014.76
2017-09-21T10:19:07.110Z,1014.80
2017-09-21T10:20:02.172Z,1014.81
2017-09-21T10:20:57.207Z,1014.81
2017-09-21T10:21:52.354Z,1014.85
2017-09-21T10:22:46.310Z,1014.81
2017-09-21T10:23:40.371Z,1014.83
2017-09-21T10:24:40.420Z,1014.77
2017-09-21T10:25:29.434Z,1014.76
2017-09-21T10:26:18.492Z,1014.88
2017-09-21T10:27:12.566Z,1014.89
2017-09-21T10:28:00.584Z,1014.83
2017-09-21T10:28:54.693Z,1014.77
2017-09-21T10:29:49.715Z,1014.81
2017-09-21T10:30:43.752Z,1014.65
2017-09-21T10:31:37.829Z,1014.70
2017-09-21T10:32:37.875Z,1014.79
2017-09-21T10:33:33.247Z,1014.78
2017-09-21T10:34:32.603Z,1014.79
2017-09-21T10:35:33.252Z,1014.71
2017-09-21T10:36:28.070Z,1014.72
2017-09-21T10:37:22.163Z,1014.70
2017-09-21T10:38:16.256Z,1014.65
2017-09-21T10:39:11.259Z,1014.65
2017-09-21T10:40:00.291Z,1014.73
2017-09-21T10:40:49.401Z,1014.72
2017-09-21T10:41:43.508Z,1014.61
2017-09-21T10:42:37.538Z,1014.64
2017-09-21T10:43:37.524Z,1014.68
2017-09-21T10:44:26.611Z,1014.58
2017-09-21T10:45:26.645Z,1014.71
2017-09-21T10:46:20.724Z,1014.62
2017-09-21T10:47:15.348Z,1014.73
2017-09-21T10:48:04.389Z,1014.71
2017-09-21T10:48:52.415Z,1014.67
2017-09-21T10:49:47.480Z,1014.64
2017-09-21T10:50:42.002Z,1014.61
2017-09-21T10:51:29.864Z,1014.66
2017-09-21T10:52:24.933Z,1014.51
2017-09-21T10:53:26.021Z,1014.57
2017-09-21T10:54:20.893Z,1014.63
2017-09-21T10:55:15.221Z,1014.65